Terminal Aerodrome Forecast
Issued by NWS

Home | Current Version | Previous Version | Text Only | Print | Product List | Glossary On
Versions: 1 2 3 4 5 6 7 8 9 10 11 12 13
000
FTAK31 PANC 251740
TAFAAQ
TAF
PAAQ 251740Z 2518/2618 VRB06KT P6SM SCT080 OVC100
     FM252000 13012G22KT P6SM FEW080 SCT150
     FM252300 15018G28KT P6SM BKN080
     FM260500 11010G18KT P6SM SCT080 BKN100
     FM260900 VRB04KT P6SM BKN120=

USA.gov is the U.S. government's official web portal to all federal, state and local government web resources and services.